Pleasant Valley, Washington
Current Conditions -  °F | °C
As of 8:53 AM on Thursday 30 Oct 2014 (Local Time) from KBLI Reporting Station
Light Rain Light Rain  
Wind Chill: 54°   Ceiling: 9000
Heat Index: 54°   Visibility: 10mi
Dew Point: 45°   Wind: 7mph
Humidity: 72%   Direction: 30°NNE
Pressure: 29.83"   Gusts: NA
Location:  48.8653°N, 122.636°W
Report Text: KBLI 301553Z 03006KT 10SM -RA OVC090 12/07 A2983 RMK AO2 RAB27 SLP107 P0000 T01220072
Loading
Personal Weather Stations






























Interactive Weather Map
Tropical Storm Tracking
New forecast layout! Learn more

10-Day Weather Forecast

Advertisements
Track Severe Weather on mobile